createdAt,value
2019-02-28T00:00:01.996Z,67.69
2019-02-28T00:01:11.879Z,68.96
2019-02-28T00:02:14.561Z,68.87
2019-02-28T00:03:20.481Z,68.86
2019-02-28T00:04:32.021Z,68.61
2019-02-28T00:05:32.363Z,68.26
2019-02-28T00:06:38.235Z,68.19
2019-02-28T00:07:44.855Z,67.79
2019-02-28T00:08:53.683Z,67.79
2019-02-28T00:09:57.493Z,67.09
2019-02-28T00:11:05.092Z,67.61
2019-02-28T00:12:10.240Z,67.95
2019-02-28T00:13:14.681Z,67.95
2019-02-28T00:14:20.610Z,67.48
2019-02-28T00:15:26.159Z,67.35
2019-02-28T00:16:32.141Z,67.61
2019-02-28T00:17:42.559Z,68.30
2019-02-28T00:18:44.241Z,69.07
2019-02-28T00:19:50.185Z,69.23
2019-02-28T00:20:56.059Z,68.95
2019-02-28T00:22:01.948Z,69.07
2019-02-28T00:23:07.858Z,69.25
2019-02-28T00:24:13.731Z,68.68
2019-02-28T00:25:19.736Z,68.53
2019-02-28T00:26:25.664Z,68.42
2019-02-28T00:27:31.657Z,68.57
2019-02-28T00:28:37.576Z,69.04
2019-02-28T00:29:43.524Z,68.86
2019-02-28T00:30:49.429Z,69.00
2019-02-28T00:31:55.326Z,69.41
2019-02-28T00:33:01.249Z,69.33
2019-02-28T00:34:07.166Z,69.38
2019-02-28T00:35:13.496Z,69.83
2019-02-28T00:36:19.309Z,69.31
2019-02-28T00:37:25.575Z,69.69
2019-02-28T00:38:30.430Z,70.08
2019-02-28T00:39:36.244Z,69.67
2019-02-28T00:40:42.138Z,69.78
2019-02-28T00:41:48.057Z,70.18
2019-02-28T00:42:53.968Z,70.68
2019-02-28T00:43:59.896Z,70.67
2019-02-28T00:45:05.109Z,70.35
2019-02-28T00:46:11.062Z,69.94
2019-02-28T00:47:17.175Z,70.02
2019-02-28T00:48:22.887Z,69.69
2019-02-28T00:49:28.771Z,70.06
2019-02-28T00:50:34.727Z,70.23
2019-02-28T00:51:40.266Z,70.25
2019-02-28T00:52:46.202Z,71.52
2019-02-28T00:53:52.111Z,72.15
2019-02-28T00:54:58.057Z,70.97
2019-02-28T00:56:03.641Z,70.83
2019-02-28T00:57:09.529Z,71.68
2019-02-28T00:58:15.656Z,71.97
2019-02-28T00:59:21.803Z,71.67
2019-02-28T01:00:27.445Z,71.64
2019-02-28T01:01:33.563Z,71.46
2019-02-28T01:02:39.564Z,70.43
2019-02-28T01:03:45.425Z,69.15
2019-02-28T01:04:51.521Z,68.05
2019-02-28T01:05:57.557Z,66.85
2019-02-28T01:07:03.512Z,65.82
2019-02-28T01:08:09.509Z,66.19
2019-02-28T01:09:15.674Z,66.78
2019-02-28T01:10:22.812Z,69.44
2019-02-28T01:11:29.271Z,70.12
2019-02-28T01:12:36.830Z,70.50
2019-02-28T01:13:42.927Z,70.70
2019-02-28T01:14:48.994Z,70.56
2019-02-28T01:15:55.955Z,70.25
2019-02-28T01:17:01.886Z,70.22
2019-02-28T01:18:07.817Z,70.39
2019-02-28T01:19:13.810Z,70.07
2019-02-28T01:20:19.840Z,70.85
2019-02-28T01:21:25.732Z,70.97
2019-02-28T01:22:31.629Z,71.39
2019-02-28T01:23:37.518Z,71.10
2019-02-28T01:24:43.463Z,71.25
2019-02-28T01:25:49.136Z,70.26
2019-02-28T01:26:55.101Z,69.87
2019-02-28T01:28:01.084Z,68.94
2019-02-28T01:29:07.005Z,68.76
2019-02-28T01:30:12.897Z,68.60
2019-02-28T01:31:18.899Z,68.72
2019-02-28T01:32:25.229Z,68.74
2019-02-28T01:33:31.538Z,69.82
2019-02-28T01:34:37.559Z,70.40
2019-02-28T01:35:43.660Z,71.20
2019-02-28T01:36:49.682Z,71.45
2019-02-28T01:37:55.774Z,71.37
2019-02-28T01:39:01.672Z,71.30
2019-02-28T01:40:07.880Z,71.60
2019-02-28T01:41:13.849Z,72.02
2019-02-28T01:42:20.785Z,71.98
2019-02-28T01:43:28.803Z,72.26
2019-02-28T01:44:35.535Z,72.48
2019-02-28T01:45:38.094Z,72.57
2019-02-28T01:46:44.097Z,72.57
2019-02-28T01:47:51.704Z,72.42
2019-02-28T01:48:56.379Z,71.87
2019-02-28T01:50:02.503Z,70.57
2019-02-28T01:51:08.519Z,69.95
2019-02-28T01:52:14.510Z,69.28
2019-02-28T01:53:20.396Z,69.09
2019-02-28T01:54:27.777Z,69.18
2019-02-28T01:55:32.513Z,69.01
2019-02-28T01:56:38.530Z,69.53
2019-02-28T01:57:44.544Z,69.90
2019-02-28T01:58:51.080Z,70.45
2019-02-28T01:59:56.614Z,70.12
2019-02-28T02:01:02.650Z,70.20
2019-02-28T02:02:08.576Z,69.85
2019-02-28T02:03:14.623Z,70.90
2019-02-28T02:04:20.542Z,71.01
2019-02-28T02:05:26.075Z,71.21
2019-02-28T02:06:32.196Z,71.49
2019-02-28T02:07:38.120Z,72.12
2019-02-28T02:08:44.082Z,72.49
2019-02-28T02:09:50.034Z,71.80
2019-02-28T02:10:56.166Z,71.47
2019-02-28T02:12:02.252Z,71.16
2019-02-28T02:13:08.214Z,71.07
2019-02-28T02:14:14.148Z,70.46
2019-02-28T02:15:20.271Z,70.04
2019-02-28T02:16:27.651Z,69.95
2019-02-28T02:17:35.451Z,70.01
2019-02-28T02:18:40.325Z,70.92
2019-02-28T02:19:44.487Z,71.06
2019-02-28T02:20:50.104Z,71.36
2019-02-28T02:21:57.009Z,71.32
2019-02-28T02:23:03.045Z,72.66
2019-02-28T02:24:08.980Z,72.80
2019-02-28T02:25:14.247Z,72.89
2019-02-28T02:26:20.378Z,71.72
2019-02-28T02:27:26.322Z,70.83
2019-02-28T02:28:32.225Z,70.41
2019-02-28T02:29:38.201Z,69.48
2019-02-28T02:30:50.534Z,68.55
2019-02-28T02:31:50.319Z,67.72
2019-02-28T02:32:56.195Z,67.35
2019-02-28T02:34:02.304Z,67.20
2019-02-28T02:35:08.429Z,67.32
2019-02-28T02:36:16.260Z,67.29
2019-02-28T02:37:21.594Z,67.18
2019-02-28T02:38:27.620Z,67.27
2019-02-28T02:39:33.669Z,66.90
2019-02-28T02:40:39.876Z,66.80
2019-02-28T02:41:45.963Z,65.51
2019-02-28T02:42:52.061Z,65.92
2019-02-28T02:43:58.149Z,65.20
2019-02-28T02:45:05.493Z,65.47
2019-02-28T02:46:09.722Z,65.83
2019-02-28T02:47:15.699Z,66.08
2019-02-28T02:48:21.716Z,66.53
2019-02-28T02:49:27.671Z,65.70
2019-02-28T02:50:35.855Z,66.51
2019-02-28T02:51:40.045Z,68.04
2019-02-28T02:52:46.016Z,67.76
2019-02-28T02:53:51.930Z,67.43
2019-02-28T02:54:57.852Z,66.68
2019-02-28T02:56:04.927Z,65.01
2019-02-28T02:57:13.897Z,64.20
2019-02-28T02:58:15.718Z,62.68
2019-02-28T02:59:21.628Z,63.06
2019-02-28T03:00:27.556Z,60.92
2019-02-28T03:01:33.485Z,60.56
2019-02-28T03:02:39.404Z,59.15
2019-02-28T03:03:45.335Z,58.39
2019-02-28T03:04:57.881Z,57.46
2019-02-28T03:05:56.829Z,57.19
2019-02-28T03:07:02.777Z,56.40
2019-02-28T03:08:08.666Z,56.17
2019-02-28T03:09:14.570Z,55.87
2019-02-28T03:10:20.260Z,56.47
2019-02-28T03:11:26.240Z,55.74
2019-02-28T03:12:32.967Z,55.31
2019-02-28T03:13:42.163Z,54.77
2019-02-28T03:14:44.062Z,54.64
2019-02-28T03:15:50.017Z,54.46
2019-02-28T03:16:55.972Z,53.97
2019-02-28T03:18:02.164Z,54.15
2019-02-28T03:19:08.575Z,54.39
2019-02-28T03:20:13.809Z,54.59
2019-02-28T03:21:19.724Z,54.88
2019-02-28T03:22:29.803Z,54.95
2019-02-28T03:23:37.870Z,55.70
2019-02-28T03:24:38.217Z,55.34
2019-02-28T03:25:44.271Z,55.10
2019-02-28T03:26:50.274Z,54.96
2019-02-28T03:27:56.823Z,55.22
2019-02-28T03:29:07.482Z,55.27
2019-02-28T03:30:09.341Z,55.73
2019-02-28T03:31:15.985Z,55.71
2019-02-28T03:32:21.409Z,55.76
2019-02-28T03:33:28.867Z,55.37
2019-02-28T03:34:33.334Z,55.47
2019-02-28T03:35:42.988Z,55.26
2019-02-28T03:36:55.262Z,55.18
2019-02-28T03:37:51.520Z,55.29
2019-02-28T03:38:57.468Z,55.90
2019-02-28T03:40:05.197Z,55.11
2019-02-28T03:41:16.299Z,55.32
2019-02-28T03:42:16.269Z,55.56
2019-02-28T03:43:22.191Z,55.98
2019-02-28T03:44:28.242Z,55.95
2019-02-28T03:45:35.322Z,56.36
2019-02-28T03:46:46.243Z,56.52
2019-02-28T03:47:46.153Z,56.40
2019-02-28T03:48:52.070Z,56.46
2019-02-28T03:49:58.012Z,56.40
2019-02-28T03:51:04.143Z,56.52
2019-02-28T03:52:10.042Z,57.03
2019-02-28T03:53:19.428Z,56.81
2019-02-28T03:54:21.942Z,57.68
2019-02-28T03:55:27.526Z,57.88
2019-02-28T03:56:33.786Z,58.12
2019-02-28T03:57:40.301Z,58.72
2019-02-28T03:58:45.896Z,59.03
2019-02-28T03:59:56.788Z,58.70
2019-02-28T04:00:57.403Z,58.99
2019-02-28T04:02:03.091Z,59.21
2019-02-28T04:03:08.762Z,59.37
2019-02-28T04:04:14.706Z,60.08
2019-02-28T04:05:26.504Z,59.94
2019-02-28T04:06:26.021Z,59.90
2019-02-28T04:07:34.577Z,60.03
2019-02-28T04:08:38.010Z,60.92
2019-02-28T04:09:45.179Z,62.55
2019-02-28T04:10:49.915Z,62.20
2019-02-28T04:11:55.916Z,63.19
2019-02-28T04:13:01.845Z,62.99
2019-02-28T04:14:07.383Z,61.44
2019-02-28T04:15:13.597Z,61.38
2019-02-28T04:16:19.537Z,60.26
2019-02-28T04:17:29.830Z,60.31
2019-02-28T04:18:31.019Z,60.38
2019-02-28T04:19:36.973Z,60.54
2019-02-28T04:20:42.843Z,60.82
2019-02-28T04:21:48.786Z,61.20
2019-02-28T04:22:58.753Z,61.15
2019-02-28T04:24:00.653Z,61.23
2019-02-28T04:25:05.909Z,61.07
2019-02-28T04:26:12.358Z,60.67
2019-02-28T04:27:18.311Z,60.62
2019-02-28T04:28:24.241Z,60.65
2019-02-28T04:29:31.381Z,60.78
2019-02-28T04:30:42.170Z,60.57
2019-02-28T04:31:42.306Z,60.27
2019-02-28T04:32:48.248Z,60.22
2019-02-28T04:33:54.125Z,60.36
2019-02-28T04:35:00.036Z,59.85
2019-02-28T04:36:05.940Z,59.62
2019-02-28T04:37:11.826Z,59.57
2019-02-28T04:38:20.705Z,59.44
2019-02-28T04:39:24.104Z,59.63
2019-02-28T04:40:30.064Z,59.97
2019-02-28T04:41:35.952Z,59.60
2019-02-28T04:42:41.845Z,59.14
2019-02-28T04:43:48.464Z,59.28
2019-02-28T04:44:54.876Z,59.24
2019-02-28T04:46:00.784Z,58.97
2019-02-28T04:47:07.555Z,58.69
2019-02-28T04:48:13.892Z,58.62
2019-02-28T04:49:21.819Z,58.72
2019-02-28T04:50:24.473Z,58.50
2019-02-28T04:51:30.348Z,58.14
2019-02-28T04:52:36.291Z,57.60
2019-02-28T04:53:42.163Z,57.41
2019-02-28T04:54:48.069Z,57.46
2019-02-28T04:55:54.000Z,57.65
2019-02-28T04:56:59.974Z,57.19
2019-02-28T04:58:05.829Z,56.64
2019-02-28T04:59:11.749Z,57.47
2019-02-28T05:00:16.969Z,57.52
2019-02-28T05:01:23.028Z,58.24
2019-02-28T05:02:28.985Z,58.72
2019-02-28T05:03:34.904Z,58.94
2019-02-28T05:04:40.872Z,58.65
2019-02-28T05:05:47.661Z,58.46
2019-02-28T05:06:55.138Z,58.50
2019-02-28T05:08:04.661Z,57.90
2019-02-28T05:09:03.978Z,57.83
2019-02-28T05:10:09.210Z,57.62
2019-02-28T05:11:15.121Z,57.32
2019-02-28T05:12:21.025Z,57.42
2019-02-28T05:13:26.928Z,57.61
2019-02-28T05:14:32.833Z,57.69
2019-02-28T05:15:41.035Z,57.76
2019-02-28T05:16:47.470Z,57.47
2019-02-28T05:17:53.060Z,57.20
2019-02-28T05:18:58.259Z,56.87
2019-02-28T05:20:02.418Z,56.77
2019-02-28T05:21:08.319Z,57.14
2019-02-28T05:22:14.253Z,57.47
2019-02-28T05:23:20.233Z,57.68
2019-02-28T05:24:26.146Z,57.95
2019-02-28T05:25:32.043Z,58.16
2019-02-28T05:26:37.952Z,57.85
2019-02-28T05:27:43.893Z,57.80
2019-02-28T05:28:49.947Z,58.28
2019-02-28T05:29:55.847Z,58.50
2019-02-28T05:31:01.787Z,58.59
2019-02-28T05:32:07.677Z,58.60
2019-02-28T05:33:13.544Z,58.74
2019-02-28T05:34:19.515Z,59.03
2019-02-28T05:35:26.598Z,59.80
2019-02-28T05:36:31.087Z,59.48
2019-02-28T05:37:36.982Z,59.43
2019-02-28T05:38:42.910Z,59.93
2019-02-28T05:39:48.866Z,60.25
2019-02-28T05:40:55.518Z,60.50
2019-02-28T05:42:00.771Z,60.47
2019-02-28T05:43:06.679Z,60.15
2019-02-28T05:44:12.588Z,60.64
2019-02-28T05:45:18.225Z,60.74
2019-02-28T05:46:24.601Z,60.57
2019-02-28T05:47:32.446Z,60.97
2019-02-28T05:48:38.731Z,61.77
2019-02-28T05:49:43.360Z,61.78
2019-02-28T05:50:52.799Z,61.70
2019-02-28T05:51:58.618Z,61.71
2019-02-28T05:53:02.922Z,62.64
2019-02-28T05:54:06.772Z,62.99
2019-02-28T05:55:11.963Z,63.08
2019-02-28T05:56:17.870Z,62.85
2019-02-28T05:57:23.789Z,63.29
2019-02-28T05:58:29.693Z,63.98
2019-02-28T05:59:35.635Z,63.68
2019-02-28T06:00:41.552Z,63.68
2019-02-28T06:01:47.764Z,63.53
2019-02-28T06:02:54.495Z,64.06
2019-02-28T06:04:02.911Z,63.63
2019-02-28T06:05:04.197Z,63.38
2019-02-28T06:06:10.133Z,63.14
2019-02-28T06:07:16.069Z,63.15
2019-02-28T06:08:22.736Z,62.92
2019-02-28T06:09:29.015Z,63.18
2019-02-28T06:10:34.910Z,63.55
2019-02-28T06:11:40.804Z,63.28
2019-02-28T06:12:46.817Z,63.82
2019-02-28T06:13:53.471Z,63.65
2019-02-28T06:15:03.228Z,63.59
2019-02-28T06:16:04.576Z,63.37
2019-02-28T06:17:10.432Z,63.43
2019-02-28T06:18:16.367Z,63.94
2019-02-28T06:19:22.300Z,64.03
2019-02-28T06:20:28.191Z,63.82
2019-02-28T06:21:34.109Z,63.74
2019-02-28T06:22:39.649Z,63.92
2019-02-28T06:23:45.592Z,64.62
2019-02-28T06:24:51.492Z,65.09
2019-02-28T06:25:59.304Z,65.95
2019-02-28T06:27:03.653Z,66.27
2019-02-28T06:28:09.361Z,66.26
2019-02-28T06:29:15.278Z,66.40
2019-02-28T06:30:21.183Z,66.23
2019-02-28T06:31:27.090Z,66.51
2019-02-28T06:32:32.974Z,66.61
2019-02-28T06:33:38.871Z,66.55
2019-02-28T06:34:44.769Z,65.75
2019-02-28T06:35:53.532Z,65.99
2019-02-28T06:36:56.639Z,66.30
2019-02-28T06:38:02.237Z,66.39
2019-02-28T06:39:07.482Z,66.76
2019-02-28T06:40:14.514Z,67.07
2019-02-28T06:41:20.417Z,66.88
2019-02-28T06:42:26.349Z,66.99
2019-02-28T06:43:32.257Z,67.66
2019-02-28T06:44:38.118Z,68.83
2019-02-28T06:45:44.142Z,68.97
2019-02-28T06:46:50.465Z,68.47
2019-02-28T06:47:56.840Z,68.87
2019-02-28T06:49:06.998Z,69.01
2019-02-28T06:50:08.137Z,68.91
2019-02-28T06:51:16.845Z,68.93
2019-02-28T06:52:22.273Z,68.74
2019-02-28T06:53:25.840Z,68.66
2019-02-28T06:54:31.764Z,69.02
2019-02-28T06:55:37.476Z,68.96
2019-02-28T06:56:43.523Z,68.86
2019-02-28T06:57:49.485Z,69.12
2019-02-28T06:58:55.388Z,69.53
2019-02-28T07:00:01.325Z,69.46
2019-02-28T07:01:07.265Z,69.28
2019-02-28T07:02:13.211Z,69.23
2019-02-28T07:03:19.130Z,69.25
2019-02-28T07:04:25.071Z,69.03
2019-02-28T07:05:31.004Z,69.11
2019-02-28T07:06:36.936Z,68.82
2019-02-28T07:07:45.609Z,69.20
2019-02-28T07:08:48.419Z,69.15
2019-02-28T07:09:54.360Z,68.81
2019-02-28T07:11:00.273Z,68.89
2019-02-28T07:12:07.162Z,68.64
2019-02-28T07:13:13.740Z,68.11
2019-02-28T07:14:19.614Z,67.93
2019-02-28T07:15:25.543Z,68.42
2019-02-28T07:16:34.572Z,68.27
2019-02-28T07:17:37.523Z,68.25
2019-02-28T07:18:43.387Z,68.52
2019-02-28T07:19:49.373Z,68.89
2019-02-28T07:20:55.293Z,68.69
2019-02-28T07:22:01.239Z,68.45
2019-02-28T07:23:07.115Z,69.16
2019-02-28T07:24:13.085Z,69.41
2019-02-28T07:25:19.236Z,69.69
2019-02-28T07:26:25.166Z,69.59
2019-02-28T07:27:31.103Z,69.23
2019-02-28T07:28:37.702Z,69.16
2019-02-28T07:29:43.559Z,69.50
2019-02-28T07:30:50.379Z,69.95
2019-02-28T07:32:00.057Z,69.72
2019-02-28T07:33:00.702Z,69.43
2019-02-28T07:34:06.670Z,69.12
2019-02-28T07:35:12.163Z,68.71
2019-02-28T07:36:18.105Z,68.65
2019-02-28T07:37:24.052Z,68.79
2019-02-28T07:38:29.973Z,68.93
2019-02-28T07:39:36.509Z,68.81
2019-02-28T07:40:41.930Z,68.54
2019-02-28T07:41:47.873Z,68.70
2019-02-28T07:42:53.782Z,69.00
2019-02-28T07:43:59.746Z,69.08
2019-02-28T07:45:04.942Z,69.37
2019-02-28T07:46:10.882Z,70.08
2019-02-28T07:47:17.723Z,69.20
2019-02-28T07:48:26.796Z,68.94
2019-02-28T07:49:28.719Z,68.92
2019-02-28T07:50:34.622Z,68.96
2019-02-28T07:51:40.559Z,70.01
2019-02-28T07:52:46.461Z,69.58
2019-02-28T07:53:52.377Z,69.32
2019-02-28T07:54:58.510Z,69.00
2019-02-28T07:56:07.776Z,68.74
2019-02-28T07:57:17.021Z,68.71
2019-02-28T07:58:18.818Z,68.78
2019-02-28T07:59:24.710Z,68.13
2019-02-28T08:00:30.601Z,68.52
2019-02-28T08:01:36.112Z,68.42
2019-02-28T08:02:42.072Z,68.65
2019-02-28T08:03:47.957Z,68.96
2019-02-28T08:04:54.587Z,68.90
2019-02-28T08:06:04.498Z,68.90
2019-02-28T08:07:05.021Z,68.84
2019-02-28T08:08:10.554Z,68.94
2019-02-28T08:09:18.670Z,69.35
2019-02-28T08:10:24.775Z,68.95
2019-02-28T08:11:30.628Z,68.81
2019-02-28T08:12:36.211Z,68.55
2019-02-28T08:13:41.750Z,68.61
2019-02-28T08:14:47.918Z,68.15
2019-02-28T08:15:53.386Z,68.49
2019-02-28T08:16:59.183Z,68.40
2019-02-28T08:18:05.828Z,68.02
2019-02-28T08:19:10.716Z,67.93
2019-02-28T08:20:16.267Z,67.74
2019-02-28T08:21:21.861Z,67.67
2019-02-28T08:22:27.734Z,67.56
2019-02-28T08:23:33.640Z,68.13
2019-02-28T08:24:39.547Z,67.86
2019-02-28T08:25:45.149Z,67.96
2019-02-28T08:26:53.625Z,67.60
2019-02-28T08:27:59.925Z,67.51
2019-02-28T08:29:02.984Z,67.31
2019-02-28T08:30:12.087Z,67.25
2019-02-28T08:31:17.615Z,67.18
2019-02-28T08:32:23.567Z,67.21
2019-02-28T08:33:29.523Z,67.15
2019-02-28T08:34:35.571Z,66.71
2019-02-28T08:35:42.251Z,66.72
2019-02-28T08:36:49.020Z,66.54
2019-02-28T08:37:57.255Z,66.30
2019-02-28T08:39:02.860Z,66.59
2019-02-28T08:40:12.558Z,66.58
2019-02-28T08:41:16.002Z,66.59
2019-02-28T08:42:21.950Z,66.42
2019-02-28T08:43:27.844Z,66.75
2019-02-28T08:44:33.773Z,66.20
2019-02-28T08:45:39.683Z,66.03
2019-02-28T08:46:46.391Z,65.53
2019-02-28T08:47:55.254Z,65.63
2019-02-28T08:48:57.088Z,65.15
2019-02-28T08:50:02.633Z,64.93
2019-02-28T08:51:08.223Z,65.05
2019-02-28T08:52:14.135Z,64.72
2019-02-28T08:53:20.014Z,64.60
2019-02-28T08:54:27.269Z,64.68
2019-02-28T08:55:31.595Z,65.17
2019-02-28T08:56:37.475Z,65.36
2019-02-28T08:57:43.123Z,65.66
2019-02-28T08:58:49.120Z,64.64
2019-02-28T08:59:56.379Z,64.02
2019-02-28T09:01:00.798Z,63.87
2019-02-28T09:02:06.068Z,63.55
2019-02-28T09:03:12.002Z,63.12
2019-02-28T09:04:17.932Z,63.10
2019-02-28T09:05:27.291Z,63.39
2019-02-28T09:06:29.423Z,64.01
2019-02-28T09:07:35.379Z,63.78
2019-02-28T09:08:41.266Z,63.72
2019-02-28T09:09:47.160Z,63.13
2019-02-28T09:10:52.700Z,62.50
2019-02-28T09:11:58.909Z,63.21
2019-02-28T09:13:07.586Z,62.86
2019-02-28T09:14:10.391Z,63.28
2019-02-28T09:15:15.108Z,63.19
2019-02-28T09:16:21.013Z,62.60
2019-02-28T09:17:27.038Z,62.42
2019-02-28T09:18:33.122Z,62.39
2019-02-28T09:19:39.862Z,62.42
2019-02-28T09:20:46.834Z,62.16
2019-02-28T09:21:53.772Z,61.99
2019-02-28T09:23:02.272Z,61.79
2019-02-28T09:24:04.869Z,61.19
2019-02-28T09:25:22.024Z,61.03
2019-02-28T09:26:28.285Z,60.56
2019-02-28T09:27:35.244Z,60.12
2019-02-28T09:28:38.447Z,60.60
2019-02-28T09:29:44.379Z,61.14
2019-02-28T09:30:51.431Z,61.52
2019-02-28T09:31:56.986Z,61.68
2019-02-28T09:33:02.956Z,60.93
2019-02-28T09:34:09.278Z,61.12
2019-02-28T09:35:14.599Z,61.13
2019-02-28T09:36:20.668Z,60.25
2019-02-28T09:37:29.472Z,59.91
2019-02-28T09:38:32.190Z,59.97
2019-02-28T09:39:38.112Z,59.21
2019-02-28T09:40:44.202Z,59.96
2019-02-28T09:41:50.147Z,60.32
2019-02-28T09:42:56.347Z,60.37
2019-02-28T09:44:02.221Z,60.39
2019-02-28T09:45:08.227Z,60.28
2019-02-28T09:46:15.533Z,60.29
2019-02-28T09:47:20.213Z,60.21
2019-02-28T09:48:25.771Z,60.37
2019-02-28T09:49:31.674Z,60.31
2019-02-28T09:50:37.604Z,60.32
2019-02-28T09:51:43.532Z,60.31
2019-02-28T09:52:49.257Z,60.36
2019-02-28T09:53:55.353Z,60.42
2019-02-28T09:55:01.216Z,60.85
2019-02-28T09:56:09.318Z,60.09
2019-02-28T09:57:15.378Z,60.42
2019-02-28T09:58:18.746Z,60.61
2019-02-28T09:59:24.876Z,60.59
2019-02-28T10:00:30.084Z,60.62
2019-02-28T10:01:36.037Z,60.65
2019-02-28T10:02:43.904Z,60.65
2019-02-28T10:03:47.887Z,59.90
2019-02-28T10:04:53.795Z,60.21
2019-02-28T10:05:59.877Z,60.36
2019-02-28T10:07:05.850Z,60.57
2019-02-28T10:08:11.433Z,60.73
2019-02-28T10:09:17.768Z,60.34
2019-02-28T10:10:23.966Z,60.83
2019-02-28T10:11:31.895Z,60.81
2019-02-28T10:12:36.324Z,60.77
2019-02-28T10:13:42.278Z,60.10
2019-02-28T10:14:48.388Z,60.31
2019-02-28T10:15:54.298Z,60.58
2019-02-28T10:17:00.196Z,60.22
2019-02-28T10:18:05.993Z,60.66
2019-02-28T10:19:13.441Z,60.71
2019-02-28T10:20:27.055Z,60.07
2019-02-28T10:21:33.341Z,60.19
2019-02-28T10:22:36.911Z,60.01
2019-02-28T10:23:43.029Z,60.22
2019-02-28T10:24:49.137Z,60.54
2019-02-28T10:25:54.849Z,60.80
2019-02-28T10:27:00.793Z,61.58
2019-02-28T10:28:06.751Z,60.93
2019-02-28T10:29:12.723Z,60.70
2019-02-28T10:30:30.771Z,60.85
2019-02-28T10:31:36.255Z,60.91
2019-02-28T10:32:33.656Z,59.92
2019-02-28T10:33:39.672Z,60.06
2019-02-28T10:34:45.676Z,59.83
2019-02-28T10:35:51.583Z,60.61
2019-02-28T10:36:57.577Z,60.34
2019-02-28T10:38:03.721Z,60.41
2019-02-28T10:39:10.404Z,60.57
2019-02-28T10:40:17.704Z,61.13
2019-02-28T10:41:24.218Z,61.31
2019-02-28T10:42:28.668Z,61.50
2019-02-28T10:43:34.711Z,62.35
2019-02-28T10:44:40.877Z,61.92
2019-02-28T10:45:46.871Z,61.48
2019-02-28T10:46:53.805Z,61.21
2019-02-28T10:48:02.906Z,60.68
2019-02-28T10:49:05.650Z,61.66
2019-02-28T10:50:11.675Z,61.38
2019-02-28T10:51:17.589Z,60.53
2019-02-28T10:52:26.773Z,60.48
2019-02-28T10:53:29.645Z,60.28
2019-02-28T10:54:35.528Z,59.62
2019-02-28T10:55:41.217Z,60.31
2019-02-28T10:56:47.203Z,59.50
2019-02-28T10:57:52.479Z,59.21
2019-02-28T10:58:58.457Z,59.32
2019-02-28T11:00:03.798Z,59.52
2019-02-28T11:01:09.108Z,59.59
2019-02-28T11:02:19.008Z,58.33
2019-02-28T11:03:19.623Z,57.37
2019-02-28T11:04:25.241Z,57.45
2019-02-28T11:05:34.149Z,58.27
2019-02-28T11:06:39.612Z,57.95
2019-02-28T11:07:46.242Z,57.67
2019-02-28T11:08:52.603Z,57.71
2019-02-28T11:09:59.404Z,57.14
2019-02-28T11:11:03.901Z,56.90
2019-02-28T11:12:09.582Z,56.53
2019-02-28T11:13:17.568Z,56.83
2019-02-28T11:14:23.562Z,55.75
2019-02-28T11:15:28.829Z,55.42
2019-02-28T11:16:36.140Z,56.18
2019-02-28T11:17:41.158Z,56.15
2019-02-28T11:18:46.472Z,55.65
2019-02-28T11:19:52.904Z,56.39
2019-02-28T11:20:58.452Z,56.03
2019-02-28T11:22:04.910Z,55.49
2019-02-28T11:23:11.533Z,55.69
2019-02-28T11:24:14.140Z,56.27
2019-02-28T11:25:19.444Z,56.34
2019-02-28T11:26:24.842Z,56.95
2019-02-28T11:27:30.811Z,56.37
2019-02-28T11:28:36.661Z,56.04
2019-02-28T11:29:42.900Z,55.85
2019-02-28T11:30:47.638Z,55.81
2019-02-28T11:31:54.237Z,55.61
2019-02-28T11:33:03.238Z,55.35
2019-02-28T11:34:04.363Z,55.22
2019-02-28T11:35:09.611Z,55.24
2019-02-28T11:36:15.552Z,54.89
2019-02-28T11:37:21.203Z,54.67
2019-02-28T11:38:26.974Z,54.29
2019-02-28T11:39:33.713Z,54.64
2019-02-28T11:40:40.523Z,54.60
2019-02-28T11:41:44.448Z,54.49
2019-02-28T11:42:49.991Z,54.61
2019-02-28T11:43:56.124Z,54.57
2019-02-28T11:45:02.041Z,54.72
2019-02-28T11:46:07.282Z,54.20
2019-02-28T11:47:12.628Z,54.41
2019-02-28T11:48:20.193Z,53.91
2019-02-28T11:49:25.595Z,54.36
2019-02-28T11:50:30.321Z,53.73
2019-02-28T11:51:35.848Z,53.96
2019-02-28T11:52:41.410Z,54.62
2019-02-28T11:53:47.321Z,54.44
2019-02-28T11:54:53.232Z,54.22
2019-02-28T11:55:59.120Z,53.71
2019-02-28T11:57:06.697Z,54.35
2019-02-28T11:58:09.917Z,53.53
2019-02-28T11:59:15.887Z,53.48
2019-02-28T12:00:23.570Z,52.69
2019-02-28T12:01:29.475Z,52.68
2019-02-28T12:02:35.370Z,53.22
2019-02-28T12:03:41.297Z,53.62
2019-02-28T12:04:47.169Z,53.63
2019-02-28T12:05:53.073Z,53.12
2019-02-28T12:07:00.991Z,53.26
2019-02-28T12:08:09.214Z,53.74
2019-02-28T12:09:09.786Z,54.38
2019-02-28T12:10:14.991Z,54.28
2019-02-28T12:11:20.915Z,54.23
2019-02-28T12:12:26.868Z,54.89
2019-02-28T12:13:32.784Z,54.34
2019-02-28T12:14:38.716Z,53.95
2019-02-28T12:15:44.593Z,54.18
2019-02-28T12:16:53.633Z,54.01
2019-02-28T12:17:56.440Z,54.47
2019-02-28T12:19:02.446Z,55.39
2019-02-28T12:20:08.492Z,54.13
2019-02-28T12:21:14.437Z,54.61
2019-02-28T12:22:19.601Z,54.69
2019-02-28T12:23:25.511Z,54.38
2019-02-28T12:24:32.409Z,54.63
2019-02-28T12:25:39.558Z,54.43
2019-02-28T12:26:42.658Z,53.40
2019-02-28T12:27:48.214Z,53.47
2019-02-28T12:28:54.387Z,53.50
2019-02-28T12:29:59.726Z,52.68
2019-02-28T12:31:05.291Z,53.71
2019-02-28T12:32:12.108Z,54.09
2019-02-28T12:33:23.020Z,53.67
2019-02-28T12:34:28.989Z,53.57
2019-02-28T12:35:37.502Z,52.19
2019-02-28T12:36:36.970Z,52.98
2019-02-28T12:37:42.848Z,51.85
2019-02-28T12:38:48.409Z,51.84
2019-02-28T12:39:54.341Z,51.77
2019-02-28T12:41:00.230Z,51.70
2019-02-28T12:42:05.240Z,52.48
2019-02-28T12:43:10.574Z,52.67
2019-02-28T12:44:16.465Z,51.75
2019-02-28T12:45:29.860Z,52.44
2019-02-28T12:46:35.837Z,51.54
2019-02-28T12:47:41.586Z,51.96
2019-02-28T12:48:48.341Z,52.24
2019-02-28T12:49:54.311Z,52.59
2019-02-28T12:50:58.186Z,53.33
2019-02-28T12:52:03.775Z,52.66
2019-02-28T12:53:10.241Z,52.56
2019-02-28T12:54:16.632Z,52.50
2019-02-28T12:55:22.190Z,51.91
2019-02-28T12:56:28.133Z,52.18
2019-02-28T12:57:33.711Z,51.85
2019-02-28T12:58:41.577Z,51.05
2019-02-28T12:59:46.102Z,50.81
2019-02-28T13:00:51.141Z,50.58
2019-02-28T13:01:57.081Z,52.07
2019-02-28T13:03:02.946Z,52.48
2019-02-28T13:04:08.507Z,52.14
2019-02-28T13:05:15.834Z,52.82
2019-02-28T13:06:23.434Z,53.01
2019-02-28T13:07:25.183Z,53.96
2019-02-28T13:08:31.079Z,54.28
2019-02-28T13:09:36.642Z,53.96
2019-02-28T13:10:42.549Z,53.57
2019-02-28T13:11:48.437Z,53.18
2019-02-28T13:13:05.321Z,53.41
2019-02-28T13:14:02.657Z,53.52
2019-02-28T13:15:05.322Z,53.41
2019-02-28T13:16:10.861Z,53.89
2019-02-28T13:17:16.739Z,54.55
2019-02-28T13:18:22.669Z,55.02
2019-02-28T13:19:27.923Z,55.14
2019-02-28T13:20:34.173Z,55.81
2019-02-28T13:21:39.515Z,55.78
2019-02-28T13:22:45.049Z,55.19
2019-02-28T13:23:50.943Z,55.45
2019-02-28T13:24:56.864Z,55.42
2019-02-28T13:26:02.438Z,56.10
2019-02-28T13:27:09.900Z,56.44
2019-02-28T13:28:18.103Z,55.74
2019-02-28T13:29:22.098Z,56.02
2019-02-28T13:30:25.276Z,56.33
2019-02-28T13:31:30.867Z,56.24
2019-02-28T13:32:38.272Z,56.35
2019-02-28T13:33:42.844Z,56.85
2019-02-28T13:34:48.757Z,57.15
2019-02-28T13:35:55.072Z,56.69
2019-02-28T13:37:03.151Z,56.05
2019-02-28T13:38:06.979Z,56.16
2019-02-28T13:39:12.534Z,56.87
2019-02-28T13:40:18.212Z,56.00
2019-02-28T13:41:26.771Z,56.71
2019-02-28T13:42:30.049Z,56.29
2019-02-28T13:44:52.461Z,56.13
2019-02-28T13:45:58.031Z,55.75
2019-02-28T13:47:09.139Z,55.90
2019-02-28T13:48:09.965Z,55.45
2019-02-28T13:49:15.577Z,55.32
2019-02-28T13:50:22.151Z,55.71
2019-02-28T13:51:26.653Z,55.41
2019-02-28T13:52:32.557Z,55.71
2019-02-28T13:53:38.442Z,55.86
2019-02-28T13:54:44.036Z,55.36
2019-02-28T13:55:52.959Z,56.04
2019-02-28T13:56:56.174Z,55.58
2019-02-28T13:58:01.853Z,54.90
2019-02-28T13:59:07.781Z,55.62
2019-02-28T14:01:52.102Z,55.73
2019-02-28T14:02:56.557Z,55.73
2019-02-28T14:04:02.136Z,56.05
2019-02-28T14:05:07.405Z,56.25
2019-02-28T14:06:18.881Z,55.84
2019-02-28T14:07:18.998Z,55.80
2019-02-28T14:08:24.894Z,55.74
2019-02-28T14:09:30.769Z,55.46
2019-02-28T14:10:36.018Z,55.28
2019-02-28T14:11:41.742Z,54.94